Cotton Grove, North Carolina
Current Conditions -  °F | °C
As of 3:35 AM on Thursday 27 Nov 2014 (Local Time) from KEXX Reporting Station
Haze Haze  
Wind Chill: 41°   Ceiling: 5000
Heat Index: 41°   Visibility: 5mi
Dew Point: 40°   Wind: 0mph
Humidity: 97%   Direction: NA
Pressure: 29.99"   Gusts: NA
Location:  35.7974°N, 80.2541°W
Report Text: KEXX 270835Z AUTO 00000KT 5SM BR SCT040 BKN050 OVC060 05/05 A2999 RMK AO2 T00500045
Loading
Personal Weather Stations






























Interactive Weather Map New forecast layout! Learn more

10-Day Weather Forecast

Advertisements
Track Severe Weather on mobile